Time;durP1;ratioP1;P1;durP2;ratioP2;P2;SDS_P1;SDS_P2;PMS_P1;PMS_P2;Temp;Humidity;BMP_temperature;BMP_pressure;BME280_temperature;BME280_humidity;BME280_pressure;Samples;Min_cycle;Max_cycle;Signal;HPM_P1;HPM_P2
2023/02/06 00:00:00;;;;;;;2.3;2.3;;;;;;;3.2;100.0;104060;;;;
2023/02/06 00:01:00;;;;;;;2.3;2.3;;;;;;;3.2;100.0;104060;;;;
2023/02/06 00:02:00;;;;;;;2.3;2.3;;;;;;;3.2;100.0;104060;;;;
2023/02/06 00:03:00;;;;;;;2.3;2.3;;;;;;;3.1;100.0;104060;;;;
2023/02/06 00:04:00;;;;;;;2.3;2.3;;;;;;;3.1;100.0;104060;;;;
2023/02/06 00:05:00;;;;;;;2.3;2.3;;;;;;;3.2;100.0;104060;;;;
2023/02/06 00:06:00;;;;;;;2.3;2.3;;;;;;;3.2;100.0;104060;;;;
2023/02/06 00:07:00;;;;;;;2.2;2.2;;;;;;;3.2;100.0;104060;;;;
2023/02/06 00:08:01;;;;;;;2.2;2.2;;;;;;;3.2;100.0;104060;;;;
2023/02/06 00:09:00;;;;;;;2.2;2.2;;;;;;;3.2;100.0;104070;;;;
2023/02/06 00:10:00;;;;;;;2.2;2.2;;;;;;;3.2;100.0;104070;;;;
2023/02/06 00:11:03;;;;;;;2.2;2.2;;;;;;;3.2;100.0;104070;;;;
2023/02/06 00:12:00;;;;;;;2.2;2.2;;;;;;;3.2;100.0;104070;;;;
2023/02/06 00:13:00;;;;;;;2.2;2.2;;;;;;;3.1;100.0;104070;;;;
2023/02/06 00:14:00;;;;;;;2.2;2.2;;;;;;;3.1;100.0;104070;;;;
2023/02/06 00:15:00;;;;;;;2.2;2.2;;;;;;;3.2;100.0;104060;;;;
2023/02/06 00:16:00;;;;;;;2.2;2.2;;;;;;;3.2;100.0;104060;;;;
2023/02/06 00:17:00;;;;;;;2.2;2.2;;;;;;;3.1;100.0;104060;;;;
2023/02/06 00:18:00;;;;;;;2.2;2.2;;;;;;;3.1;100.0;104060;;;;
2023/02/06 00:19:01;;;;;;;2.2;2.2;;;;;;;3.1;100.0;104060;;;;
2023/02/06 00:20:00;;;;;;;2.2;2.2;;;;;;;3.1;100.0;104060;;;;
2023/02/06 00:21:00;;;;;;;2.2;2.2;;;;;;;3.1;100.0;104060;;;;
2023/02/06 00:22:00;;;;;;;2.2;2.2;;;;;;;3.1;100.0;104060;;;;
2023/02/06 00:23:00;;;;;;;2.2;2.2;;;;;;;3.1;100.0;104050;;;;
2023/02/06 00:24:01;;;;;;;2.2;2.2;;;;;;;3.1;100.0;104050;;;;
2023/02/06 00:25:00;;;;;;;2.2;2.2;;;;;;;3.1;100.0;104060;;;;
2023/02/06 00:26:00;;;;;;;2.2;2.2;;;;;;;3.1;100.0;104060;;;;
2023/02/06 00:27:00;;;;;;;2.9;2.8;;;;;;;3.1;100.0;104050;;;;
2023/02/06 00:28:00;;;;;;;2.9;2.8;;;;;;;3.1;100.0;104050;;;;
2023/02/06 00:29:00;;;;;;;2.9;2.8;;;;;;;3.1;100.0;104050;;;;
2023/02/06 00:30:00;;;;;;;2.9;2.8;;;;;;;3.1;100.0;104050;;;;
2023/02/06 00:31:00;;;;;;;2.9;2.8;;;;;;;3.0;100.0;104060;;;;
2023/02/06 00:32:00;;;;;;;2.9;2.8;;;;;;;3.0;100.0;104060;;;;
2023/02/06 00:33:00;;;;;;;2.9;2.8;;;;;;;3.0;100.0;104060;;;;
2023/02/06 00:34:02;;;;;;;2.9;2.8;;;;;;;3.0;100.0;104060;;;;
2023/02/06 00:35:00;;;;;;;2.9;2.8;;;;;;;3.0;100.0;104060;;;;
2023/02/06 00:36:00;;;;;;;2.9;2.8;;;;;;;3.0;100.0;104060;;;;
2023/02/06 00:37:00;;;;;;;2.9;2.8;;;;;;;3.0;100.0;104050;;;;
2023/02/06 00:38:01;;;;;;;2.9;2.8;;;;;;;3.0;100.0;104050;;;;
2023/02/06 00:39:00;;;;;;;2.9;2.8;;;;;;;2.9;100.0;104050;;;;
2023/02/06 00:40:00;;;;;;;2.9;2.8;;;;;;;2.9;100.0;104050;;;;
2023/02/06 00:41:00;;;;;;;2.9;2.8;;;;;;;2.9;100.0;104050;;;;
2023/02/06 00:42:00;;;;;;;2.9;2.8;;;;;;;2.9;100.0;104050;;;;
2023/02/06 00:43:00;;;;;;;2.9;2.8;;;;;;;2.8;100.0;104050;;;;
2023/02/06 00:44:00;;;;;;;2.9;2.8;;;;;;;2.8;100.0;104050;;;;
2023/02/06 00:45:00;;;;;;;2.9;2.8;;;;;;;2.8;100.0;104050;;;;
2023/02/06 00:46:00;;;;;;;2.9;2.8;;;;;;;2.8;100.0;104050;;;;
2023/02/06 00:47:00;;;;;;;2.8;2.7;;;;;;;2.8;100.0;104050;;;;
2023/02/06 00:48:00;;;;;;;2.8;2.7;;;;;;;2.8;100.0;104050;;;;
2023/02/06 00:49:00;;;;;;;2.8;2.7;;;;;;;2.8;100.0;104040;;;;
2023/02/06 00:50:01;;;;;;;2.8;2.7;;;;;;;2.8;100.0;104040;;;;
2023/02/06 00:51:00;;;;;;;2.8;2.7;;;;;;;2.8;100.0;104040;;;;
2023/02/06 00:52:00;;;;;;;2.8;2.7;;;;;;;2.8;100.0;104040;;;;
2023/02/06 00:53:00;;;;;;;2.8;2.7;;;;;;;2.7;100.0;104040;;;;
2023/02/06 00:54:00;;;;;;;2.8;2.7;;;;;;;2.7;100.0;104040;;;;
2023/02/06 00:55:00;;;;;;;2.8;2.7;;;;;;;2.7;100.0;104050;;;;
2023/02/06 00:56:00;;;;;;;2.8;2.7;;;;;;;2.7;100.0;104050;;;;
2023/02/06 00:57:00;;;;;;;2.8;2.7;;;;;;;2.7;100.0;104050;;;;
2023/02/06 00:58:00;;;;;;;2.8;2.7;;;;;;;2.7;100.0;104050;;;;
2023/02/06 00:59:00;;;;;;;2.8;2.7;;;;;;;2.6;100.0;104050;;;;
2023/02/06 01:00:01;;;;;;;2.8;2.7;;;;;;;2.6;100.0;104050;;;;
2023/02/06 01:01:00;;;;;;;2.8;2.7;;;;;;;2.6;100.0;104040;;;;
2023/02/06 01:02:00;;;;;;;2.8;2.7;;;;;;;2.6;100.0;104040;;;;
2023/02/06 01:03:00;;;;;;;2.8;2.7;;;;;;;2.6;100.0;104040;;;;
2023/02/06 01:04:00;;;;;;;2.8;2.7;;;;;;;2.6;100.0;104040;;;;
2023/02/06 01:05:01;;;;;;;2.8;2.7;;;;;;;2.5;100.0;104050;;;;
2023/02/06 01:06:00;;;;;;;2.8;2.7;;;;;;;2.5;100.0;104050;;;;
2023/02/06 01:07:00;;;;;;;2.5;2.5;;;;;;;2.5;100.0;104050;;;;
2023/02/06 01:08:03;;;;;;;2.5;2.5;;;;;;;2.5;100.0;104050;;;;
2023/02/06 01:09:00;;;;;;;2.5;2.5;;;;;;;2.5;100.0;104050;;;;
2023/02/06 01:10:00;;;;;;;2.5;2.5;;;;;;;2.5;100.0;104050;;;;
2023/02/06 01:11:01;;;;;;;2.5;2.5;;;;;;;2.5;100.0;104050;;;;
2023/02/06 01:12:00;;;;;;;2.5;2.5;;;;;;;2.5;100.0;104050;;;;
2023/02/06 01:13:00;;;;;;;2.5;2.5;;;;;;;2.4;100.0;104050;;;;
2023/02/06 01:14:00;;;;;;;2.5;2.5;;;;;;;2.4;100.0;104050;;;;
2023/02/06 01:15:01;;;;;;;2.5;2.5;;;;;;;2.4;100.0;104060;;;;
2023/02/06 01:16:00;;;;;;;2.5;2.5;;;;;;;2.4;100.0;104060;;;;
2023/02/06 01:17:00;;;;;;;2.5;2.5;;;;;;;2.3;100.0;104060;;;;
2023/02/06 01:18:00;;;;;;;2.5;2.5;;;;;;;2.3;100.0;104060;;;;
2023/02/06 01:19:00;;;;;;;2.5;2.5;;;;;;;2.3;100.0;104070;;;;
2023/02/06 01:20:00;;;;;;;2.5;2.5;;;;;;;2.3;100.0;104070;;;;
2023/02/06 01:21:00;;;;;;;2.5;2.5;;;;;;;2.3;100.0;104070;;;;
2023/02/06 01:22:00;;;;;;;2.5;2.5;;;;;;;2.3;100.0;104070;;;;
2023/02/06 01:23:00;;;;;;;2.5;2.5;;;;;;;2.3;100.0;104070;;;;
2023/02/06 01:24:00;;;;;;;2.5;2.5;;;;;;;2.3;100.0;104070;;;;
2023/02/06 01:25:00;;;;;;;2.5;2.5;;;;;;;2.3;100.0;104080;;;;
2023/02/06 01:26:04;;;;;;;2.5;2.5;;;;;;;2.3;100.0;104080;;;;
2023/02/06 01:27:00;;;;;;;2.9;2.8;;;;;;;2.3;100.0;104080;;;;
2023/02/06 01:28:00;;;;;;;2.9;2.8;;;;;;;2.3;100.0;104080;;;;
2023/02/06 01:29:01;;;;;;;2.9;2.8;;;;;;;2.2;100.0;104070;;;;
2023/02/06 01:30:00;;;;;;;2.9;2.8;;;;;;;2.2;100.0;104070;;;;
2023/02/06 01:31:00;;;;;;;2.9;2.8;;;;;;;2.2;100.0;104070;;;;
2023/02/06 01:32:00;;;;;;;2.9;2.8;;;;;;;2.2;100.0;104070;;;;
2023/02/06 01:33:00;;;;;;;2.9;2.8;;;;;;;2.2;100.0;104070;;;;
2023/02/06 01:34:00;;;;;;;2.9;2.8;;;;;;;2.2;100.0;104070;;;;
2023/02/06 01:35:00;;;;;;;2.9;2.8;;;;;;;2.2;100.0;104070;;;;
2023/02/06 01:36:00;;;;;;;2.9;2.8;;;;;;;2.2;100.0;104070;;;;
2023/02/06 01:37:01;;;;;;;2.9;2.8;;;;;;;2.1;100.0;104060;;;;
2023/02/06 01:38:00;;;;;;;2.9;2.8;;;;;;;2.1;100.0;104060;;;;
2023/02/06 01:39:00;;;;;;;2.9;2.8;;;;;;;2.1;100.0;104070;;;;
2023/02/06 01:40:01;;;;;;;2.9;2.8;;;;;;;2.1;100.0;104070;;;;
2023/02/06 01:41:01;;;;;;;2.9;2.8;;;;;;;2.1;100.0;104070;;;;
2023/02/06 01:42:00;;;;;;;2.9;2.8;;;;;;;2.1;100.0;104070;;;;
2023/02/06 01:43:00;;;;;;;2.9;2.8;;;;;;;2.0;100.0;104070;;;;
2023/02/06 01:44:10;;;;;;;2.9;2.8;;;;;;;2.0;100.0;104070;;;;
2023/02/06 01:45:10;;;;;;;2.9;2.8;;;;;;;2.0;100.0;104070;;;;
2023/02/06 01:46:00;;;;;;;2.9;2.8;;;;;;;2.0;100.0;104070;;;;
2023/02/06 01:47:00;;;;;;;3.1;3.0;;;;;;;2.0;100.0;104080;;;;
2023/02/06 01:48:03;;;;;;;3.1;3.0;;;;;;;2.0;100.0;104080;;;;
2023/02/06 01:49:01;;;;;;;3.1;3.0;;;;;;;2.0;100.0;104080;;;;
2023/02/06 01:50:01;;;;;;;3.1;3.0;;;;;;;2.0;100.0;104080;;;;
2023/02/06 01:51:02;;;;;;;3.1;3.0;;;;;;;2.0;100.0;104080;;;;
2023/02/06 01:52:03;;;;;;;3.1;3.0;;;;;;;2.0;100.0;104080;;;;
2023/02/06 01:53:02;;;;;;;3.1;3.0;;;;;;;2.0;100.0;104080;;;;
2023/02/06 01:54:03;;;;;;;3.1;3.0;;;;;;;2.0;100.0;104080;;;;
2023/02/06 01:55:02;;;;;;;3.1;3.0;;;;;;;2.0;100.0;104080;;;;
2023/02/06 01:56:02;;;;;;;3.1;3.0;;;;;;;2.0;100.0;104080;;;;
2023/02/06 01:57:02;;;;;;;3.1;3.0;;;;;;;2.0;100.0;104080;;;;
2023/02/06 01:58:01;;;;;;;3.1;3.0;;;;;;;2.0;100.0;104080;;;;
2023/02/06 01:59:01;;;;;;;3.1;3.0;;;;;;;1.9;100.0;104070;;;;
2023/02/06 02:00:06;;;;;;;3.1;3.0;;;;;;;1.9;100.0;104070;;;;
2023/02/06 02:01:01;;;;;;;3.1;3.0;;;;;;;1.9;100.0;104080;;;;
2023/02/06 02:02:01;;;;;;;3.1;3.0;;;;;;;1.9;100.0;104080;;;;
2023/02/06 02:03:01;;;;;;;3.1;3.0;;;;;;;1.9;100.0;104070;;;;
2023/02/06 02:04:03;;;;;;;3.1;3.0;;;;;;;1.9;100.0;104070;;;;
2023/02/06 02:05:01;;;;;;;3.1;3.0;;;;;;;2.0;100.0;104080;;;;
2023/02/06 02:06:04;;;;;;;3.1;3.0;;;;;;;2.0;100.0;104080;;;;
2023/02/06 02:07:06;;;;;;;2.7;2.6;;;;;;;1.9;100.0;104070;;;;
2023/02/06 02:08:05;;;;;;;2.7;2.6;;;;;;;1.9;100.0;104070;;;;
2023/02/06 02:09:02;;;;;;;2.7;2.6;;;;;;;1.9;100.0;104080;;;;
2023/02/06 02:10:01;;;;;;;2.7;2.6;;;;;;;1.9;100.0;104080;;;;
2023/02/06 02:11:02;;;;;;;2.7;2.6;;;;;;;2.0;100.0;104080;;;;
2023/02/06 02:12:00;;;;;;;2.7;2.6;;;;;;;2.0;100.0;104080;;;;
2023/02/06 02:13:00;;;;;;;2.7;2.6;;;;;;;2.0;100.0;104080;;;;
2023/02/06 02:14:02;;;;;;;2.7;2.6;;;;;;;2.0;100.0;104080;;;;
2023/02/06 02:15:00;;;;;;;2.7;2.6;;;;;;;2.0;100.0;104080;;;;
2023/02/06 02:16:06;;;;;;;2.7;2.6;;;;;;;2.0;100.0;104080;;;;
2023/02/06 02:17:05;;;;;;;2.7;2.6;;;;;;;2.0;100.0;104090;;;;
2023/02/06 02:18:04;;;;;;;2.7;2.6;;;;;;;2.0;100.0;104090;;;;
2023/02/06 02:19:10;;;;;;;2.7;2.6;;;;;;;2.0;100.0;104080;;;;
2023/02/06 02:20:08;;;;;;;2.7;2.6;;;;;;;2.0;100.0;104080;;;;
2023/02/06 02:21:10;;;;;;;2.7;2.6;;;;;;;2.0;100.0;104080;;;;
2023/02/06 02:22:10;;;;;;;2.7;2.6;;;;;;;2.0;100.0;104080;;;;
2023/02/06 02:23:10;;;;;;;2.7;2.6;;;;;;;2.0;100.0;104080;;;;
2023/02/06 02:24:10;;;;;;;2.7;2.6;;;;;;;2.0;100.0;104080;;;;
2023/02/06 02:25:04;;;;;;;2.7;2.6;;;;;;;2.0;100.0;104070;;;;
2023/02/06 02:26:10;;;;;;;2.7;2.6;;;;;;;2.0;100.0;104070;;;;
2023/02/06 02:27:10;;;;;;;3.2;3.1;;;;;;;2.1;100.0;104070;;;;
2023/02/06 02:28:10;;;;;;;3.2;3.1;;;;;;;2.1;100.0;104070;;;;
2023/02/06 02:29:08;;;;;;;3.2;3.1;;;;;;;2.1;100.0;104070;;;;
2023/02/06 02:30:10;;;;;;;3.2;3.1;;;;;;;2.1;100.0;104070;;;;
2023/02/06 02:31:10;;;;;;;3.2;3.1;;;;;;;2.1;100.0;104060;;;;
2023/02/06 02:32:10;;;;;;;3.2;3.1;;;;;;;2.1;100.0;104060;;;;
2023/02/06 02:33:10;;;;;;;3.2;3.1;;;;;;;2.1;100.0;104050;;;;
2023/02/06 02:34:10;;;;;;;3.2;3.1;;;;;;;2.1;100.0;104050;;;;
2023/02/06 02:35:06;;;;;;;3.2;3.1;;;;;;;2.2;100.0;104050;;;;
2023/02/06 02:36:04;;;;;;;3.2;3.1;;;;;;;2.2;100.0;104050;;;;
2023/02/06 02:37:10;;;;;;;3.2;3.1;;;;;;;2.2;100.0;104050;;;;
2023/02/06 02:38:06;;;;;;;3.2;3.1;;;;;;;2.2;100.0;104050;;;;
2023/02/06 02:39:04;;;;;;;3.2;3.1;;;;;;;2.2;100.0;104050;;;;
2023/02/06 02:40:10;;;;;;;3.2;3.1;;;;;;;2.2;100.0;104050;;;;
2023/02/06 02:41:01;;;;;;;3.2;3.1;;;;;;;2.2;100.0;104050;;;;
2023/02/06 02:42:00;;;;;;;3.2;3.1;;;;;;;2.2;100.0;104050;;;;
2023/02/06 02:43:01;;;;;;;3.2;3.1;;;;;;;2.2;100.0;104050;;;;
2023/02/06 02:44:06;;;;;;;3.2;3.1;;;;;;;2.2;100.0;104050;;;;
2023/02/06 02:45:01;;;;;;;3.2;3.1;;;;;;;2.3;100.0;104060;;;;
2023/02/06 02:46:07;;;;;;;3.2;3.1;;;;;;;2.3;100.0;104060;;;;
2023/02/06 02:47:03;;;;;;;2.5;2.5;;;;;;;2.3;100.0;104050;;;;
2023/02/06 02:48:10;;;;;;;2.5;2.5;;;;;;;2.3;100.0;104050;;;;
2023/02/06 02:49:06;;;;;;;2.5;2.5;;;;;;;2.3;100.0;104050;;;;
2023/02/06 02:50:02;;;;;;;2.5;2.5;;;;;;;2.3;100.0;104050;;;;
2023/02/06 02:51:00;;;;;;;2.5;2.5;;;;;;;2.3;100.0;104050;;;;
2023/02/06 02:52:01;;;;;;;2.5;2.5;;;;;;;2.3;100.0;104050;;;;
2023/02/06 02:53:01;;;;;;;2.5;2.5;;;;;;;2.3;100.0;104050;;;;
2023/02/06 02:54:00;;;;;;;2.5;2.5;;;;;;;2.3;100.0;104050;;;;
2023/02/06 02:55:00;;;;;;;2.5;2.5;;;;;;;2.3;100.0;104050;;;;
2023/02/06 02:56:00;;;;;;;2.5;2.5;;;;;;;2.3;100.0;104050;;;;
2023/02/06 02:57:05;;;;;;;2.5;2.5;;;;;;;2.3;100.0;104050;;;;
2023/02/06 02:58:04;;;;;;;2.5;2.5;;;;;;;2.3;100.0;104050;;;;
2023/02/06 02:59:04;;;;;;;2.5;2.5;;;;;;;2.3;100.0;104040;;;;
2023/02/06 03:00:01;;;;;;;2.5;2.5;;;;;;;2.3;100.0;104040;;;;
2023/02/06 03:01:02;;;;;;;2.5;2.5;;;;;;;2.4;100.0;104040;;;;
2023/02/06 03:02:06;;;;;;;2.5;2.5;;;;;;;2.4;100.0;104040;;;;
2023/02/06 03:03:02;;;;;;;2.5;2.5;;;;;;;2.3;100.0;104040;;;;
2023/02/06 03:04:05;;;;;;;2.5;2.5;;;;;;;2.3;100.0;104040;;;;
2023/02/06 03:05:03;;;;;;;2.5;2.5;;;;;;;2.4;100.0;104040;;;;
2023/02/06 03:06:04;;;;;;;2.5;2.5;;;;;;;2.4;100.0;104040;;;;
2023/02/06 03:07:01;;;;;;;3.1;3.0;;;;;;;2.4;100.0;104050;;;;
2023/02/06 03:08:09;;;;;;;3.1;3.0;;;;;;;2.4;100.0;104050;;;;
2023/02/06 03:09:10;;;;;;;3.1;3.0;;;;;;;2.4;100.0;104040;;;;
2023/02/06 03:10:00;;;;;;;3.1;3.0;;;;;;;2.4;100.0;104040;;;;
2023/02/06 03:11:00;;;;;;;3.1;3.0;;;;;;;2.4;100.0;104040;;;;
2023/02/06 03:12:10;;;;;;;3.1;3.0;;;;;;;2.4;100.0;104040;;;;
2023/02/06 03:13:05;;;;;;;3.1;3.0;;;;;;;2.4;100.0;104040;;;;
2023/02/06 03:14:05;;;;;;;3.1;3.0;;;;;;;2.4;100.0;104040;;;;
2023/02/06 03:15:04;;;;;;;3.1;3.0;;;;;;;2.4;100.0;104040;;;;
2023/02/06 03:16:10;;;;;;;3.1;3.0;;;;;;;2.4;100.0;104040;;;;
2023/02/06 03:17:03;;;;;;;3.1;3.0;;;;;;;2.4;100.0;104020;;;;
2023/02/06 03:18:06;;;;;;;3.1;3.0;;;;;;;2.4;100.0;104020;;;;
2023/02/06 03:19:01;;;;;;;3.1;3.0;;;;;;;2.4;100.0;104020;;;;
2023/02/06 03:20:02;;;;;;;3.1;3.0;;;;;;;2.4;100.0;104020;;;;
2023/02/06 03:21:03;;;;;;;3.1;3.0;;;;;;;2.5;100.0;104030;;;;
2023/02/06 03:22:01;;;;;;;3.1;3.0;;;;;;;2.5;100.0;104030;;;;
2023/02/06 03:23:01;;;;;;;3.1;3.0;;;;;;;2.5;100.0;104030;;;;
2023/02/06 03:24:03;;;;;;;3.1;3.0;;;;;;;2.5;100.0;104030;;;;
2023/02/06 03:25:03;;;;;;;3.1;3.0;;;;;;;2.5;100.0;104030;;;;
2023/02/06 03:26:04;;;;;;;2.6;2.5;;;;;;;2.5;100.0;104030;;;;
2023/02/06 03:27:02;;;;;;;2.6;2.5;;;;;;;2.5;100.0;104040;;;;
2023/02/06 03:28:02;;;;;;;2.6;2.5;;;;;;;2.5;100.0;104040;;;;
2023/02/06 03:29:02;;;;;;;2.6;2.5;;;;;;;2.5;100.0;104040;;;;
2023/02/06 03:30:02;;;;;;;2.6;2.5;;;;;;;2.5;100.0;104040;;;;
2023/02/06 03:31:02;;;;;;;2.6;2.5;;;;;;;2.5;100.0;104040;;;;
2023/02/06 03:32:03;;;;;;;2.6;2.5;;;;;;;2.5;100.0;104040;;;;
2023/02/06 03:33:03;;;;;;;2.6;2.5;;;;;;;2.5;100.0;104040;;;;
2023/02/06 03:34:03;;;;;;;2.6;2.5;;;;;;;2.5;100.0;104040;;;;
2023/02/06 03:35:05;;;;;;;2.6;2.5;;;;;;;2.5;100.0;104030;;;;
2023/02/06 03:36:02;;;;;;;2.6;2.5;;;;;;;2.5;100.0;104030;;;;
2023/02/06 03:37:00;;;;;;;2.6;2.5;;;;;;;2.5;100.0;104040;;;;
2023/02/06 03:38:01;;;;;;;2.6;2.5;;;;;;;2.5;100.0;104040;;;;
2023/02/06 03:39:00;;;;;;;2.6;2.5;;;;;;;2.5;100.0;104040;;;;
2023/02/06 03:40:01;;;;;;;2.6;2.5;;;;;;;2.5;100.0;104040;;;;
2023/02/06 03:41:00;;;;;;;2.6;2.5;;;;;;;2.5;100.0;104030;;;;
2023/02/06 03:42:02;;;;;;;2.6;2.5;;;;;;;2.5;100.0;104030;;;;
2023/02/06 03:43:02;;;;;;;2.6;2.5;;;;;;;2.5;100.0;104030;;;;
2023/02/06 03:44:02;;;;;;;2.6;2.5;;;;;;;2.5;100.0;104030;;;;
2023/02/06 03:45:05;;;;;;;2.6;2.5;;;;;;;2.6;100.0;104030;;;;
2023/02/06 03:46:04;;;;;;;2.4;2.4;;;;;;;2.6;100.0;104030;;;;
2023/02/06 03:47:01;;;;;;;2.4;2.4;;;;;;;2.6;100.0;104030;;;;
2023/02/06 03:48:03;;;;;;;2.4;2.4;;;;;;;2.6;100.0;104030;;;;
2023/02/06 03:49:01;;;;;;;2.4;2.4;;;;;;;2.6;100.0;104030;;;;
2023/02/06 03:50:01;;;;;;;2.4;2.4;;;;;;;2.6;100.0;104030;;;;
2023/02/06 03:51:02;;;;;;;2.4;2.4;;;;;;;2.6;100.0;104030;;;;
2023/02/06 03:52:06;;;;;;;2.4;2.4;;;;;;;2.6;100.0;104030;;;;
2023/02/06 03:53:01;;;;;;;2.4;2.4;;;;;;;2.5;100.0;104030;;;;
2023/02/06 03:54:03;;;;;;;2.4;2.4;;;;;;;2.5;100.0;104030;;;;
2023/02/06 03:55:03;;;;;;;2.4;2.4;;;;;;;2.6;100.0;104030;;;;
2023/02/06 03:56:05;;;;;;;2.4;2.4;;;;;;;2.6;100.0;104030;;;;
2023/02/06 03:57:02;;;;;;;2.4;2.4;;;;;;;2.6;100.0;104030;;;;
2023/02/06 03:58:02;;;;;;;2.4;2.4;;;;;;;2.6;100.0;104030;;;;
2023/02/06 03:59:00;;;;;;;2.4;2.4;;;;;;;2.6;100.0;104020;;;;
2023/02/06 04:00:01;;;;;;;2.4;2.4;;;;;;;2.6;100.0;104020;;;;
2023/02/06 04:01:02;;;;;;;2.4;2.4;;;;;;;2.6;100.0;104020;;;;
2023/02/06 04:02:02;;;;;;;2.4;2.4;;;;;;;2.6;100.0;104020;;;;
2023/02/06 04:03:00;;;;;;;2.4;2.4;;;;;;;2.6;100.0;104020;;;;
2023/02/06 04:04:02;;;;;;;2.4;2.4;;;;;;;2.6;100.0;104020;;;;
2023/02/06 04:05:00;;;;;;;2.4;2.4;;;;;;;2.5;100.0;104030;;;;
2023/02/06 04:06:00;;;;;;;2.3;2.3;;;;;;;2.5;100.0;104030;;;;
2023/02/06 04:07:02;;;;;;;2.3;2.3;;;;;;;2.5;100.0;104020;;;;
2023/02/06 04:08:00;;;;;;;2.3;2.3;;;;;;;2.5;100.0;104020;;;;
2023/02/06 04:09:00;;;;;;;2.3;2.3;;;;;;;2.5;100.0;104020;;;;
2023/02/06 04:10:00;;;;;;;2.3;2.3;;;;;;;2.5;100.0;104020;;;;
2023/02/06 04:11:00;;;;;;;2.3;2.3;;;;;;;2.5;100.0;104030;;;;
2023/02/06 04:12:00;;;;;;;2.3;2.3;;;;;;;2.5;100.0;104030;;;;
2023/02/06 04:13:00;;;;;;;2.3;2.3;;;;;;;2.4;100.0;104030;;;;
2023/02/06 04:14:00;;;;;;;2.3;2.3;;;;;;;2.4;100.0;104030;;;;
2023/02/06 04:15:00;;;;;;;2.3;2.3;;;;;;;2.4;100.0;104030;;;;
2023/02/06 04:16:01;;;;;;;2.3;2.3;;;;;;;2.4;100.0;104030;;;;
2023/02/06 04:17:00;;;;;;;2.3;2.3;;;;;;;2.3;100.0;104040;;;;
2023/02/06 04:18:02;;;;;;;2.3;2.3;;;;;;;2.3;100.0;104040;;;;
2023/02/06 04:19:00;;;;;;;2.3;2.3;;;;;;;2.3;100.0;104030;;;;
2023/02/06 04:20:00;;;;;;;2.3;2.3;;;;;;;2.3;100.0;104030;;;;
2023/02/06 04:21:02;;;;;;;2.3;2.3;;;;;;;2.2;100.0;104040;;;;
2023/02/06 04:22:01;;;;;;;2.3;2.3;;;;;;;2.2;100.0;104040;;;;
2023/02/06 04:23:00;;;;;;;2.3;2.3;;;;;;;2.2;100.0;104040;;;;
2023/02/06 04:24:00;;;;;;;2.3;2.3;;;;;;;2.2;100.0;104040;;;;
2023/02/06 04:25:00;;;;;;;2.3;2.3;;;;;;;2.2;100.0;104030;;;;
2023/02/06 04:26:00;;;;;;;2.8;2.7;;;;;;;2.2;100.0;104030;;;;
2023/02/06 04:27:00;;;;;;;2.8;2.7;;;;;;;2.1;100.0;104030;;;;
2023/02/06 04:28:00;;;;;;;2.8;2.7;;;;;;;2.1;100.0;104030;;;;
2023/02/06 04:29:00;;;;;;;2.8;2.7;;;;;;;2.1;100.0;104020;;;;
2023/02/06 04:30:00;;;;;;;2.8;2.7;;;;;;;2.1;100.0;104020;;;;
2023/02/06 04:31:00;;;;;;;2.8;2.7;;;;;;;2.1;100.0;104030;;;;
2023/02/06 04:32:02;;;;;;;2.8;2.7;;;;;;;2.1;100.0;104030;;;;
2023/02/06 04:33:00;;;;;;;2.8;2.7;;;;;;;2.1;100.0;104030;;;;
2023/02/06 04:34:00;;;;;;;2.8;2.7;;;;;;;2.1;100.0;104030;;;;
2023/02/06 04:35:00;;;;;;;2.8;2.7;;;;;;;2.0;100.0;104030;;;;
2023/02/06 04:36:00;;;;;;;2.8;2.7;;;;;;;2.0;100.0;104030;;;;
2023/02/06 04:37:01;;;;;;;2.8;2.7;;;;;;;1.9;100.0;104020;;;;
2023/02/06 04:38:00;;;;;;;2.8;2.7;;;;;;;1.9;100.0;104020;;;;
2023/02/06 04:39:01;;;;;;;2.8;2.7;;;;;;;1.9;100.0;104010;;;;
2023/02/06 04:40:00;;;;;;;2.8;2.7;;;;;;;1.9;100.0;104010;;;;
2023/02/06 04:41:01;;;;;;;2.8;2.7;;;;;;;1.9;100.0;104010;;;;
2023/02/06 04:42:01;;;;;;;2.8;2.7;;;;;;;1.9;100.0;104010;;;;
2023/02/06 04:43:00;;;;;;;2.8;2.7;;;;;;;1.9;100.0;104010;;;;
2023/02/06 04:44:00;;;;;;;2.8;2.7;;;;;;;1.9;100.0;104010;;;;
2023/02/06 04:45:00;;;;;;;2.8;2.7;;;;;;;1.8;100.0;104010;;;;
2023/02/06 04:46:00;;;;;;;2.8;2.7;;;;;;;1.8;100.0;104010;;;;
2023/02/06 04:47:01;;;;;;;2.8;2.7;;;;;;;1.9;100.0;104010;;;;
2023/02/06 04:48:00;;;;;;;2.8;2.7;;;;;;;1.9;100.0;104010;;;;
2023/02/06 04:49:00;;;;;;;2.8;2.7;;;;;;;1.8;100.0;104010;;;;
2023/02/06 04:50:00;;;;;;;2.8;2.7;;;;;;;1.8;100.0;104010;;;;
2023/02/06 04:51:00;;;;;;;2.8;2.7;;;;;;;1.8;100.0;104010;;;;
2023/02/06 04:52:00;;;;;;;2.8;2.7;;;;;;;1.8;100.0;104010;;;;
2023/02/06 04:53:00;;;;;;;2.8;2.7;;;;;;;1.8;100.0;104010;;;;
2023/02/06 04:54:01;;;;;;;2.8;2.7;;;;;;;1.8;100.0;104010;;;;
2023/02/06 04:55:00;;;;;;;2.8;2.7;;;;;;;1.8;100.0;104020;;;;
2023/02/06 04:56:02;;;;;;;2.8;2.7;;;;;;;1.8;100.0;104020;;;;
2023/02/06 04:57:00;;;;;;;2.8;2.7;;;;;;;1.8;100.0;104010;;;;
2023/02/06 04:58:00;;;;;;;2.8;2.7;;;;;;;1.8;100.0;104010;;;;
2023/02/06 04:59:00;;;;;;;2.8;2.7;;;;;;;1.7;100.0;104030;;;;
2023/02/06 05:00:00;;;;;;;2.8;2.7;;;;;;;1.7;100.0;104030;;;;
2023/02/06 05:01:00;;;;;;;2.8;2.7;;;;;;;1.6;100.0;104020;;;;
2023/02/06 05:02:00;;;;;;;2.8;2.7;;;;;;;1.6;100.0;104020;;;;
2023/02/06 05:03:00;;;;;;;2.8;2.7;;;;;;;1.7;100.0;104020;;;;
2023/02/06 05:04:00;;;;;;;2.8;2.7;;;;;;;1.7;100.0;104020;;;;
2023/02/06 05:05:00;;;;;;;2.8;2.7;;;;;;;1.7;100.0;104030;;;;
2023/02/06 05:06:03;;;;;;;2.7;2.6;;;;;;;1.7;100.0;104030;;;;
2023/02/06 05:07:00;;;;;;;2.7;2.6;;;;;;;1.7;100.0;104020;;;;
2023/02/06 05:08:00;;;;;;;2.7;2.6;;;;;;;1.7;100.0;104020;;;;
2023/02/06 05:09:01;;;;;;;2.7;2.6;;;;;;;1.6;100.0;104030;;;;
2023/02/06 05:10:00;;;;;;;2.7;2.6;;;;;;;1.6;100.0;104030;;;;
2023/02/06 05:11:00;;;;;;;2.7;2.6;;;;;;;1.6;100.0;104020;;;;
2023/02/06 05:12:00;;;;;;;2.7;2.6;;;;;;;1.6;100.0;104020;;;;
2023/02/06 05:13:00;;;;;;;2.7;2.6;;;;;;;1.6;100.0;104020;;;;
2023/02/06 05:14:00;;;;;;;2.7;2.6;;;;;;;1.6;100.0;104020;;;;
2023/02/06 05:15:00;;;;;;;2.7;2.6;;;;;;;1.6;100.0;104020;;;;
2023/02/06 05:16:05;;;;;;;2.7;2.6;;;;;;;1.6;100.0;104020;;;;
2023/02/06 05:17:00;;;;;;;2.7;2.6;;;;;;;1.6;100.0;104020;;;;
2023/02/06 05:18:00;;;;;;;2.7;2.6;;;;;;;1.6;100.0;104020;;;;
2023/02/06 05:19:00;;;;;;;2.7;2.6;;;;;;;1.6;100.0;104030;;;;
2023/02/06 05:20:00;;;;;;;2.7;2.6;;;;;;;1.6;100.0;104030;;;;
2023/02/06 05:21:01;;;;;;;2.7;2.6;;;;;;;1.7;100.0;104030;;;;
2023/02/06 05:22:01;;;;;;;2.7;2.6;;;;;;;1.7;100.0;104030;;;;
2023/02/06 05:23:00;;;;;;;2.7;2.6;;;;;;;1.6;100.0;104030;;;;
2023/02/06 05:24:00;;;;;;;2.7;2.6;;;;;;;1.6;100.0;104030;;;;
2023/02/06 05:25:00;;;;;;;2.7;2.6;;;;;;;1.7;100.0;104030;;;;
2023/02/06 05:26:01;;;;;;;2.5;2.5;;;;;;;1.7;100.0;104030;;;;
2023/02/06 05:27:00;;;;;;;2.5;2.5;;;;;;;1.7;100.0;104030;;;;
2023/02/06 05:28:01;;;;;;;2.5;2.5;;;;;;;1.7;100.0;104030;;;;
2023/02/06 05:29:00;;;;;;;2.5;2.5;;;;;;;1.7;100.0;104030;;;;
2023/02/06 05:30:00;;;;;;;2.5;2.5;;;;;;;1.7;100.0;104030;;;;
2023/02/06 05:31:01;;;;;;;2.5;2.5;;;;;;;1.7;100.0;104030;;;;
2023/02/06 05:32:00;;;;;;;2.5;2.5;;;;;;;1.7;100.0;104030;;;;
2023/02/06 05:33:01;;;;;;;2.5;2.5;;;;;;;1.7;100.0;104030;;;;
2023/02/06 05:34:00;;;;;;;2.5;2.5;;;;;;;1.7;100.0;104030;;;;
2023/02/06 05:35:00;;;;;;;2.5;2.5;;;;;;;1.7;100.0;104030;;;;
2023/02/06 05:36:01;;;;;;;2.5;2.5;;;;;;;1.7;100.0;104030;;;;
2023/02/06 05:37:00;;;;;;;2.5;2.5;;;;;;;1.7;100.0;104040;;;;
2023/02/06 05:38:00;;;;;;;2.5;2.5;;;;;;;1.7;100.0;104040;;;;
2023/02/06 05:39:00;;;;;;;2.5;2.5;;;;;;;1.7;100.0;104040;;;;
2023/02/06 05:40:00;;;;;;;2.5;2.5;;;;;;;1.7;100.0;104040;;;;
2023/02/06 05:41:00;;;;;;;2.5;2.5;;;;;;;1.7;100.0;104040;;;;
2023/02/06 05:42:00;;;;;;;2.5;2.5;;;;;;;1.7;100.0;104040;;;;
2023/02/06 05:43:00;;;;;;;2.5;2.5;;;;;;;1.7;100.0;104040;;;;
2023/02/06 05:44:00;;;;;;;2.5;2.5;;;;;;;1.7;100.0;104040;;;;
2023/02/06 05:45:00;;;;;;;2.5;2.5;;;;;;;1.7;100.0;104050;;;;
2023/02/06 05:46:00;;;;;;;2.8;2.7;;;;;;;1.7;100.0;104050;;;;
2023/02/06 05:47:00;;;;;;;2.8;2.7;;;;;;;1.7;100.0;104050;;;;
2023/02/06 05:48:00;;;;;;;2.8;2.7;;;;;;;1.7;100.0;104050;;;;
2023/02/06 05:49:00;;;;;;;2.8;2.7;;;;;;;1.7;100.0;104050;;;;
2023/02/06 05:50:00;;;;;;;2.8;2.7;;;;;;;1.7;100.0;104050;;;;
2023/02/06 05:51:00;;;;;;;2.8;2.7;;;;;;;1.7;100.0;104060;;;;
2023/02/06 05:52:00;;;;;;;2.8;2.7;;;;;;;1.7;100.0;104060;;;;
2023/02/06 05:53:00;;;;;;;2.8;2.7;;;;;;;1.7;100.0;104050;;;;
2023/02/06 05:54:00;;;;;;;2.8;2.7;;;;;;;1.7;100.0;104050;;;;
2023/02/06 05:55:00;;;;;;;2.8;2.7;;;;;;;1.7;100.0;104050;;;;
2023/02/06 05:56:00;;;;;;;2.8;2.7;;;;;;;1.7;100.0;104050;;;;
2023/02/06 05:57:01;;;;;;;2.8;2.7;;;;;;;1.6;100.0;104050;;;;
2023/02/06 05:58:00;;;;;;;2.8;2.7;;;;;;;1.6;100.0;104050;;;;
2023/02/06 05:59:00;;;;;;;2.8;2.7;;;;;;;1.6;100.0;104050;;;;
2023/02/06 06:00:01;;;;;;;2.8;2.7;;;;;;;1.6;100.0;104050;;;;
2023/02/06 06:01:00;;;;;;;2.8;2.7;;;;;;;1.6;100.0;104050;;;;
2023/02/06 06:02:01;;;;;;;2.8;2.7;;;;;;;1.6;100.0;104050;;;;
2023/02/06 06:03:00;;;;;;;2.8;2.7;;;;;;;1.6;100.0;104050;;;;
2023/02/06 06:04:01;;;;;;;2.8;2.7;;;;;;;1.6;100.0;104050;;;;
2023/02/06 06:05:00;;;;;;;2.8;2.7;;;;;;;1.6;100.0;104050;;;;
2023/02/06 06:06:00;;;;;;;2.5;2.5;;;;;;;1.6;100.0;104050;;;;
2023/02/06 06:07:00;;;;;;;2.5;2.5;;;;;;;1.6;100.0;104050;;;;
2023/02/06 06:08:00;;;;;;;2.5;2.5;;;;;;;1.6;100.0;104050;;;;
2023/02/06 06:09:00;;;;;;;2.5;2.5;;;;;;;1.5;100.0;104040;;;;
2023/02/06 06:10:00;;;;;;;2.5;2.5;;;;;;;1.5;100.0;104040;;;;
2023/02/06 06:11:02;;;;;;;2.5;2.5;;;;;;;1.4;100.0;104040;;;;
2023/02/06 06:12:00;;;;;;;2.5;2.5;;;;;;;1.4;100.0;104040;;;;
2023/02/06 06:13:00;;;;;;;2.5;2.5;;;;;;;1.4;100.0;104040;;;;
2023/02/06 06:14:00;;;;;;;2.5;2.5;;;;;;;1.4;100.0;104040;;;;
2023/02/06 06:15:00;;;;;;;2.5;2.5;;;;;;;1.4;100.0;104050;;;;
2023/02/06 06:16:00;;;;;;;2.5;2.5;;;;;;;1.4;100.0;104050;;;;
2023/02/06 06:17:00;;;;;;;2.5;2.5;;;;;;;1.4;100.0;104040;;;;
2023/02/06 06:18:00;;;;;;;2.5;2.5;;;;;;;1.4;100.0;104040;;;;
2023/02/06 06:19:00;;;;;;;2.5;2.5;;;;;;;1.4;100.0;104040;;;;
2023/02/06 06:20:00;;;;;;;2.5;2.5;;;;;;;1.4;100.0;104040;;;;
2023/02/06 06:21:00;;;;;;;2.5;2.5;;;;;;;1.4;100.0;104050;;;;
2023/02/06 06:22:00;;;;;;;2.5;2.5;;;;;;;1.4;100.0;104050;;;;
2023/02/06 06:23:00;;;;;;;2.5;2.5;;;;;;;1.4;100.0;104050;;;;
2023/02/06 06:24:00;;;;;;;2.5;2.5;;;;;;;1.4;100.0;104050;;;;
2023/02/06 06:25:00;;;;;;;2.5;2.5;;;;;;;1.4;100.0;104050;;;;
2023/02/06 06:26:00;;;;;;;2.8;2.7;;;;;;;1.4;100.0;104050;;;;
2023/02/06 06:27:01;;;;;;;2.8;2.7;;;;;;;1.4;100.0;104050;;;;
2023/02/06 06:28:01;;;;;;;2.8;2.7;;;;;;;1.4;100.0;104050;;;;
2023/02/06 06:29:00;;;;;;;2.8;2.7;;;;;;;1.4;100.0;104050;;;;